createdAt,value
2023-01-09T00:00:29.891Z,22.30
2023-01-09T00:02:57.091Z,24.27
2023-01-09T00:05:24.343Z,21.90
2023-01-09T00:07:51.546Z,23.70
2023-01-09T00:10:18.711Z,22.67
2023-01-09T00:12:45.982Z,22.57
2023-01-09T00:15:13.427Z,22.30
2023-01-09T00:17:40.876Z,22.93
2023-01-09T00:20:09.633Z,23.03
2023-01-09T00:22:37.751Z,24.13
2023-01-09T00:25:05.337Z,22.37
2023-01-09T00:27:33.399Z,21.50
2023-01-09T00:30:00.795Z,23.77
2023-01-09T00:32:28.308Z,23.20
2023-01-09T00:34:56.394Z,25.67
2023-01-09T00:37:23.973Z,25.13
2023-01-09T00:39:51.372Z,25.23
2023-01-09T00:42:23.312Z,25.00
2023-01-09T00:44:53.102Z,25.10
2023-01-09T00:47:46.320Z,23.73
2023-01-09T00:50:24.137Z,23.60
2023-01-09T00:52:52.618Z,23.90
2023-01-09T00:55:19.806Z,22.83
2023-01-09T00:57:47.011Z,21.07
2023-01-09T01:00:14.646Z,21.13
2023-01-09T01:02:41.987Z,21.97
2023-01-09T01:05:28.384Z,20.80
2023-01-09T01:07:55.568Z,20.87
2023-01-09T01:10:24.638Z,21.87
2023-01-09T01:12:52.573Z,20.40
2023-01-09T01:15:20.560Z,21.53
2023-01-09T01:17:48.132Z,20.73
2023-01-09T01:20:16.826Z,20.13
2023-01-09T01:22:44.151Z,21.23
2023-01-09T01:25:12.511Z,21.93
2023-01-09T01:27:40.052Z,21.30
2023-01-09T01:30:09.721Z,21.03
2023-01-09T01:32:37.469Z,20.07
2023-01-09T01:35:04.848Z,20.30
2023-01-09T01:37:32.282Z,19.83
2023-01-09T01:39:59.457Z,20.53
2023-01-09T01:42:26.646Z,19.73
2023-01-09T01:44:56.848Z,21.33
2023-01-09T01:47:26.200Z,20.90
2023-01-09T01:49:53.604Z,20.77
2023-01-09T01:52:21.520Z,20.17
2023-01-09T01:54:49.347Z,21.40
2023-01-09T01:57:16.577Z,20.33
2023-01-09T01:59:50.230Z,21.53
2023-01-09T02:02:21.931Z,21.83
2023-01-09T02:04:50.426Z,21.40
2023-01-09T02:07:17.576Z,20.87
2023-01-09T02:09:45.135Z,21.17
2023-01-09T02:12:30.149Z,21.23
2023-01-09T02:14:58.413Z,20.70
2023-01-09T02:17:31.620Z,21.57
2023-01-09T02:20:04.691Z,20.73
2023-01-09T02:22:45.692Z,20.93
2023-01-09T02:25:31.567Z,22.10
2023-01-09T02:28:01.960Z,22.60
2023-01-09T02:30:34.926Z,21.90
2023-01-09T02:33:25.466Z,22.60
2023-01-09T02:35:52.632Z,21.40
2023-01-09T02:38:33.658Z,21.47
2023-01-09T02:41:03.579Z,21.67
2023-01-09T02:43:31.272Z,21.23
2023-01-09T02:45:58.571Z,21.47
2023-01-09T02:48:25.862Z,22.70
2023-01-09T02:51:11.955Z,20.60
2023-01-09T02:53:45.154Z,20.27
2023-01-09T02:56:32.397Z,20.37
2023-01-09T02:59:08.123Z,21.23
2023-01-09T03:01:52.241Z,20.17
2023-01-09T03:04:19.529Z,20.43
2023-01-09T03:06:54.287Z,20.90
2023-01-09T03:09:22.752Z,20.50
2023-01-09T03:12:25.569Z,23.37
2023-01-09T03:14:54.124Z,22.37
2023-01-09T03:17:25.598Z,21.80
2023-01-09T03:19:54.043Z,23.07
2023-01-09T03:22:21.192Z,21.10
2023-01-09T03:24:48.596Z,21.73
2023-01-09T03:27:15.836Z,22.20
2023-01-09T03:29:43.045Z,21.77
2023-01-09T03:32:10.271Z,22.40
2023-01-09T03:34:37.579Z,22.67
2023-01-09T03:37:05.158Z,22.63
2023-01-09T03:39:32.885Z,22.10
2023-01-09T03:42:00.248Z,22.40
2023-01-09T03:44:27.429Z,21.50
2023-01-09T03:46:54.586Z,23.30
2023-01-09T03:49:21.811Z,22.33
2023-01-09T03:51:48.956Z,21.97
2023-01-09T03:54:16.115Z,22.33
2023-01-09T03:56:43.323Z,23.83
2023-01-09T03:59:10.475Z,23.43
2023-01-09T04:01:37.769Z,23.40
2023-01-09T04:04:05.163Z,22.53
2023-01-09T04:06:32.398Z,22.57
2023-01-09T04:08:59.621Z,21.53
2023-01-09T04:11:26.820Z,21.80
2023-01-09T04:13:54.207Z,21.10
2023-01-09T04:16:21.519Z,21.93
2023-01-09T04:18:48.718Z,21.20
2023-01-09T04:21:15.843Z,22.57
2023-01-09T04:23:43.040Z,22.13
2023-01-09T04:26:10.250Z,21.87
2023-01-09T04:28:37.489Z,21.77
2023-01-09T04:31:05.273Z,22.57
2023-01-09T04:33:32.516Z,21.07
2023-01-09T04:35:59.770Z,20.57
2023-01-09T04:38:27.523Z,20.40
2023-01-09T04:40:54.855Z,18.80
2023-01-09T04:43:22.456Z,20.43
2023-01-09T04:45:49.682Z,20.87
2023-01-09T04:48:16.876Z,19.87
2023-01-09T04:50:44.157Z,19.67
2023-01-09T04:53:11.528Z,19.77
2023-01-09T04:55:38.822Z,19.30
2023-01-09T04:58:05.992Z,18.83
2023-01-09T05:00:33.350Z,19.03
2023-01-09T05:03:02.795Z,19.43
2023-01-09T05:05:30.188Z,17.80
2023-01-09T05:07:57.356Z,18.73
2023-01-09T05:10:24.466Z,20.67
2023-01-09T05:12:52.576Z,19.00
2023-01-09T05:15:19.776Z,18.20
2023-01-09T05:17:46.967Z,19.47
2023-01-09T05:20:14.220Z,19.67
2023-01-09T05:22:41.371Z,20.40
2023-01-09T05:25:08.766Z,18.83
2023-01-09T05:27:36.080Z,19.37
2023-01-09T05:30:03.222Z,19.27
2023-01-09T05:32:30.415Z,20.30
2023-01-09T05:34:57.659Z,18.47
2023-01-09T05:37:24.823Z,20.57
2023-01-09T05:39:51.963Z,20.47
2023-01-09T05:42:19.141Z,20.47
2023-01-09T05:44:46.314Z,20.67
2023-01-09T05:47:13.619Z,19.63
2023-01-09T05:49:41.105Z,20.57
2023-01-09T05:52:08.612Z,21.23
2023-01-09T05:54:38.796Z,20.90
2023-01-09T05:57:05.932Z,19.63
2023-01-09T05:59:33.100Z,21.17
2023-01-09T06:02:00.593Z,22.33
2023-01-09T06:04:30.001Z,22.33
2023-01-09T06:06:57.376Z,20.57
2023-01-09T06:09:24.830Z,21.90
2023-01-09T06:11:52.087Z,22.13
2023-01-09T06:14:19.268Z,22.77
2023-01-09T06:16:46.469Z,20.50
2023-01-09T06:19:13.892Z,20.87
2023-01-09T06:21:41.082Z,20.47
2023-01-09T06:24:08.488Z,20.60
2023-01-09T06:26:35.780Z,21.67
2023-01-09T06:29:03.014Z,22.37
2023-01-09T06:31:30.293Z,21.90
2023-01-09T06:33:57.688Z,20.63
2023-01-09T06:36:24.940Z,21.37
2023-01-09T06:38:52.164Z,22.40
2023-01-09T06:41:19.373Z,23.73
2023-01-09T06:43:46.578Z,21.37
2023-01-09T06:46:13.961Z,21.33
2023-01-09T06:48:41.426Z,22.57
2023-01-09T06:51:08.648Z,23.10
2023-01-09T06:53:35.944Z,20.97
2023-01-09T06:56:03.464Z,21.57
2023-01-09T06:58:30.701Z,22.00
2023-01-09T07:00:59.318Z,20.87
2023-01-09T07:03:26.584Z,20.87
2023-01-09T07:05:53.753Z,23.40
2023-01-09T07:08:21.016Z,21.10
2023-01-09T07:10:48.177Z,21.37
2023-01-09T07:13:15.335Z,19.97
2023-01-09T07:15:42.565Z,22.33
2023-01-09T07:18:09.808Z,20.57
2023-01-09T07:20:37.000Z,21.13
2023-01-09T07:23:04.140Z,22.57
2023-01-09T07:25:31.337Z,21.57
2023-01-09T07:27:58.547Z,23.03
2023-01-09T07:30:25.743Z,23.53
2023-01-09T07:32:53.873Z,24.37
2023-01-09T07:35:20.994Z,26.03
2023-01-09T07:37:48.313Z,23.47
2023-01-09T07:40:15.451Z,25.30
2023-01-09T07:42:42.650Z,25.07
2023-01-09T07:45:10.019Z,26.33
2023-01-09T07:47:37.260Z,27.20
2023-01-09T07:50:04.565Z,26.93
2023-01-09T07:52:31.787Z,25.40
2023-01-09T07:54:58.967Z,24.87
2023-01-09T07:57:26.355Z,27.07
2023-01-09T07:59:53.571Z,26.93
2023-01-09T08:02:20.972Z,29.00
2023-01-09T08:04:48.453Z,29.17
2023-01-09T08:07:15.673Z,27.13
2023-01-09T08:09:42.815Z,29.03
2023-01-09T08:12:09.983Z,28.93
2023-01-09T08:14:37.130Z,28.33
2023-01-09T08:17:04.336Z,27.13
2023-01-09T08:19:31.496Z,28.27
2023-01-09T08:21:58.670Z,28.87
2023-01-09T08:24:25.927Z,29.07
2023-01-09T08:26:53.120Z,28.73
2023-01-09T08:29:20.330Z,28.57
2023-01-09T08:31:47.745Z,28.53
2023-01-09T08:34:15.119Z,28.10
2023-01-09T08:36:42.287Z,27.90
2023-01-09T08:39:10.231Z,28.70
2023-01-09T08:41:56.204Z,29.77
2023-01-09T08:44:42.024Z,28.13
2023-01-09T08:47:09.493Z,28.20
2023-01-09T08:49:37.816Z,28.77
2023-01-09T08:52:05.669Z,28.30
2023-01-09T08:54:32.844Z,28.73
2023-01-09T08:57:00.122Z,28.20
2023-01-09T08:59:27.411Z,27.37
2023-01-09T09:01:54.663Z,27.03
2023-01-09T09:04:21.920Z,26.57
2023-01-09T09:06:49.105Z,27.07
2023-01-09T09:09:16.269Z,25.93
2023-01-09T09:11:43.579Z,26.33
2023-01-09T09:14:29.387Z,26.03
2023-01-09T09:16:56.568Z,26.20
2023-01-09T09:19:23.740Z,26.77
2023-01-09T09:21:50.967Z,27.63
2023-01-09T09:24:18.278Z,28.87
2023-01-09T09:26:45.427Z,30.20
2023-01-09T09:29:12.922Z,31.13
2023-01-09T09:31:40.536Z,32.60
2023-01-09T09:34:08.188Z,32.77
2023-01-09T09:36:35.441Z,30.67
2023-01-09T09:39:02.850Z,32.63
2023-01-09T09:41:51.520Z,31.47
2023-01-09T09:44:52.695Z,30.97
2023-01-09T09:47:34.078Z,29.47
2023-01-09T09:50:01.300Z,32.33
2023-01-09T09:52:47.582Z,39.23
2023-01-09T09:55:41.252Z,36.00
2023-01-09T09:58:28.935Z,35.10
2023-01-09T10:00:56.941Z,31.83
2023-01-09T10:03:41.057Z,32.07
2023-01-09T10:06:26.194Z,31.73
2023-01-09T10:08:53.381Z,34.77
2023-01-09T10:11:31.661Z,32.77
2023-01-09T10:14:06.280Z,32.30
2023-01-09T10:16:44.489Z,30.10
2023-01-09T10:19:19.391Z,29.60
2023-01-09T10:21:53.355Z,31.23
2023-01-09T10:24:33.048Z,29.03
2023-01-09T10:27:03.001Z,30.47
2023-01-09T10:29:30.452Z,30.83
2023-01-09T10:32:10.064Z,32.10
2023-01-09T10:34:58.320Z,31.73
2023-01-09T10:37:46.674Z,32.53
2023-01-09T10:40:13.805Z,32.17
2023-01-09T10:42:47.684Z,34.57
2023-01-09T10:45:14.808Z,34.00
2023-01-09T10:47:43.210Z,35.27
2023-01-09T10:50:36.853Z,35.20
2023-01-09T10:53:08.734Z,33.93
2023-01-09T10:55:45.432Z,34.47
2023-01-09T10:58:13.589Z,34.87
2023-01-09T11:00:41.320Z,32.13
2023-01-09T11:03:13.223Z,31.83
2023-01-09T11:05:40.578Z,30.50
2023-01-09T11:08:13.491Z,33.10
2023-01-09T11:10:57.188Z,32.13
2023-01-09T11:13:24.445Z,31.50
2023-01-09T11:16:10.826Z,33.87
2023-01-09T11:18:48.405Z,32.33
2023-01-09T11:21:39.241Z,34.20
2023-01-09T11:24:22.090Z,33.57
2023-01-09T11:26:50.662Z,33.30
2023-01-09T11:29:19.186Z,31.67
2023-01-09T11:31:54.419Z,32.37
2023-01-09T11:34:23.730Z,30.40
2023-01-09T11:36:52.557Z,31.13
2023-01-09T11:39:30.541Z,30.77
2023-01-09T11:42:02.303Z,31.40
2023-01-09T11:44:30.777Z,35.17
2023-01-09T11:46:58.118Z,36.27
2023-01-09T11:49:26.743Z,36.97
2023-01-09T11:52:06.225Z,31.90
2023-01-09T11:54:35.228Z,32.27
2023-01-09T11:57:02.456Z,32.07
2023-01-09T11:59:30.868Z,30.07
2023-01-09T12:02:13.467Z,32.23
2023-01-09T12:04:49.005Z,34.73
2023-01-09T12:07:31.517Z,36.47
2023-01-09T12:10:17.513Z,33.00
2023-01-09T12:12:58.324Z,30.03
2023-01-09T12:15:44.187Z,31.67
2023-01-09T12:18:26.929Z,30.77
2023-01-09T12:21:07.084Z,33.90
2023-01-09T12:23:40.483Z,35.13
2023-01-09T12:26:14.348Z,30.83
2023-01-09T12:28:51.019Z,27.23
2023-01-09T12:31:27.089Z,26.33
2023-01-09T12:34:12.590Z,26.37
2023-01-09T12:36:53.858Z,25.73
2023-01-09T12:39:30.075Z,26.37
2023-01-09T12:42:08.942Z,26.90
2023-01-09T12:44:52.818Z,27.57
2023-01-09T12:47:20.186Z,26.97
2023-01-09T12:49:59.739Z,29.27
2023-01-09T12:52:33.797Z,27.87
2023-01-09T12:55:05.087Z,28.93
2023-01-09T12:57:35.710Z,27.30
2023-01-09T13:00:21.383Z,27.17
2023-01-09T13:03:12.128Z,28.70
2023-01-09T13:05:48.066Z,26.83
2023-01-09T13:08:18.421Z,27.93
2023-01-09T13:10:47.954Z,27.50
2023-01-09T13:13:31.694Z,28.47
2023-01-09T13:16:00.311Z,27.67
2023-01-09T13:18:33.993Z,29.37
2023-01-09T13:21:01.430Z,35.13
2023-01-09T13:23:36.935Z,34.67
2023-01-09T13:26:08.823Z,30.37
2023-01-09T13:28:57.135Z,32.43
2023-01-09T13:31:24.336Z,34.93
2023-01-09T13:33:58.956Z,33.23
2023-01-09T13:36:33.034Z,33.13
2023-01-09T13:39:00.998Z,34.63
2023-01-09T13:41:47.588Z,35.97
2023-01-09T13:44:32.953Z,32.50
2023-01-09T13:47:02.413Z,30.27
2023-01-09T13:49:29.554Z,31.53
2023-01-09T13:51:58.104Z,30.17
2023-01-09T13:54:44.080Z,27.30
2023-01-09T13:57:31.568Z,26.53
2023-01-09T14:00:18.990Z,23.43
2023-01-09T14:02:47.174Z,25.90
2023-01-09T14:05:26.364Z,24.23
2023-01-09T14:08:03.123Z,26.60
2023-01-09T14:10:31.931Z,24.90
2023-01-09T14:12:59.164Z,26.20
2023-01-09T14:15:26.846Z,24.87
2023-01-09T14:18:01.131Z,25.90
2023-01-09T14:20:37.901Z,33.50
2023-01-09T14:23:28.159Z,38.47
2023-01-09T14:25:54.410Z,39.27
2023-01-09T14:28:26.643Z,29.60
2023-01-09T14:30:53.890Z,31.07
2023-01-09T14:33:25.246Z,28.10
2023-01-09T14:36:00.496Z,29.00
2023-01-09T14:38:33.578Z,26.57
2023-01-09T14:41:02.976Z,27.53
2023-01-09T14:43:43.784Z,27.27
2023-01-09T14:46:15.552Z,25.53
2023-01-09T14:48:52.193Z,27.73
2023-01-09T14:51:20.963Z,28.57
2023-01-09T14:53:49.953Z,26.33
2023-01-09T14:56:28.728Z,26.07
2023-01-09T14:59:15.075Z,27.80
2023-01-09T15:01:44.563Z,27.30
2023-01-09T15:04:34.693Z,26.43
2023-01-09T15:07:02.741Z,28.17
2023-01-09T15:09:29.942Z,35.37
2023-01-09T15:12:02.103Z,37.80
2023-01-09T15:14:39.878Z,35.60
2023-01-09T15:17:08.321Z,30.77
2023-01-09T15:19:35.658Z,30.23
2023-01-09T15:22:04.359Z,27.73
2023-01-09T15:24:34.258Z,26.90
2023-01-09T15:27:03.189Z,27.17
2023-01-09T15:29:30.432Z,25.27
2023-01-09T15:32:01.275Z,25.90
2023-01-09T15:34:29.623Z,24.97
2023-01-09T15:36:56.884Z,23.30
2023-01-09T15:39:28.487Z,23.30
2023-01-09T15:42:14.747Z,22.63
2023-01-09T15:44:43.507Z,21.30
2023-01-09T15:47:16.106Z,22.03
2023-01-09T15:49:43.703Z,21.03
2023-01-09T15:52:15.153Z,20.33
2023-01-09T15:54:43.367Z,20.90
2023-01-09T15:57:26.029Z,19.87
2023-01-09T15:59:57.230Z,19.37
2023-01-09T16:02:44.031Z,20.10
2023-01-09T16:05:18.453Z,20.77
2023-01-09T16:07:53.018Z,19.50
2023-01-09T16:10:46.617Z,20.53
2023-01-09T16:13:15.631Z,19.87
2023-01-09T16:15:45.094Z,19.57
2023-01-09T16:18:18.260Z,19.80
2023-01-09T16:20:46.231Z,19.30
2023-01-09T16:23:19.161Z,20.50
2023-01-09T16:25:46.819Z,19.43
2023-01-09T16:28:20.639Z,19.23
2023-01-09T16:31:08.815Z,19.27
2023-01-09T16:33:36.121Z,20.00
2023-01-09T16:36:05.287Z,20.63
2023-01-09T16:38:32.531Z,19.70
2023-01-09T16:41:19.646Z,19.90
2023-01-09T16:43:47.087Z,20.80
2023-01-09T16:46:15.850Z,20.77
2023-01-09T16:48:43.122Z,21.70
2023-01-09T16:51:17.630Z,18.50
2023-01-09T16:53:45.196Z,18.43
2023-01-09T16:56:30.848Z,18.03
2023-01-09T16:58:58.471Z,17.83
2023-01-09T17:01:25.792Z,16.93
2023-01-09T17:03:53.137Z,17.20
2023-01-09T17:06:23.172Z,17.87
2023-01-09T17:08:51.565Z,18.37
2023-01-09T17:11:23.123Z,16.87
2023-01-09T17:13:50.519Z,16.33
2023-01-09T17:16:19.500Z,14.80
2023-01-09T17:18:46.881Z,15.00
2023-01-09T17:21:19.043Z,15.77
2023-01-09T17:23:46.938Z,16.23
2023-01-09T17:26:37.729Z,17.53
2023-01-09T17:29:05.360Z,17.47
2023-01-09T17:31:32.789Z,17.33
2023-01-09T17:34:00.038Z,17.30
2023-01-09T17:36:32.206Z,17.33
2023-01-09T17:39:00.441Z,16.73
2023-01-09T17:41:29.209Z,17.30
2023-01-09T17:44:05.756Z,16.83
2023-01-09T17:46:34.078Z,16.20
2023-01-09T17:49:02.156Z,15.07
2023-01-09T17:51:29.844Z,16.70
2023-01-09T17:53:57.228Z,14.90
2023-01-09T17:56:34.889Z,14.73
2023-01-09T17:59:02.446Z,15.67
2023-01-09T18:01:29.685Z,15.13
2023-01-09T18:03:56.927Z,15.17
2023-01-09T18:06:24.928Z,14.80
2023-01-09T18:08:52.182Z,15.40
2023-01-09T18:11:20.305Z,15.27
2023-01-09T18:13:48.848Z,15.17
2023-01-09T18:16:20.709Z,15.90
2023-01-09T18:18:48.349Z,14.40
2023-01-09T18:21:16.522Z,14.40
2023-01-09T18:23:43.708Z,14.70
2023-01-09T18:26:18.494Z,14.17
2023-01-09T18:28:45.676Z,13.07
2023-01-09T18:31:15.509Z,14.30
2023-01-09T18:33:42.667Z,14.63
2023-01-09T18:36:10.997Z,14.57
2023-01-09T18:38:38.196Z,13.83
2023-01-09T18:41:05.779Z,13.73
2023-01-09T18:43:33.118Z,14.60
2023-01-09T18:46:00.395Z,14.60
2023-01-09T18:48:27.767Z,14.83
2023-01-09T18:51:02.897Z,13.70
2023-01-09T18:53:30.416Z,13.47
2023-01-09T18:55:57.579Z,13.80
2023-01-09T18:58:24.840Z,12.93
2023-01-09T19:00:58.015Z,10.97
2023-01-09T19:03:25.342Z,11.43
2023-01-09T19:05:52.492Z,11.43
2023-01-09T19:08:21.501Z,11.93
2023-01-09T19:10:52.710Z,12.20
2023-01-09T19:13:19.951Z,12.53
2023-01-09T19:15:47.139Z,12.80
2023-01-09T19:18:15.759Z,12.83
2023-01-09T19:20:43.032Z,14.00
2023-01-09T19:23:10.239Z,15.73
2023-01-09T19:25:37.415Z,32.40
2023-01-09T19:28:04.651Z,37.27
2023-01-09T19:30:31.981Z,34.93
2023-01-09T19:32:59.133Z,43.40
2023-01-09T19:35:26.312Z,54.83
2023-01-09T19:37:53.600Z,48.73
2023-01-09T19:40:20.818Z,52.57
2023-01-09T19:42:48.068Z,50.03
2023-01-09T19:45:15.388Z,53.90
2023-01-09T19:47:42.720Z,55.63
2023-01-09T19:50:10.342Z,38.83
2023-01-09T19:52:37.688Z,35.67
2023-01-09T19:55:05.734Z,34.77
2023-01-09T19:57:33.003Z,38.33
2023-01-09T20:00:00.354Z,49.53
2023-01-09T20:02:28.106Z,49.80
2023-01-09T20:04:55.575Z,60.27
2023-01-09T20:07:22.740Z,68.20
2023-01-09T20:09:49.941Z,58.03
2023-01-09T20:12:17.108Z,84.73
2023-01-09T20:14:45.280Z,73.97
2023-01-09T20:17:12.534Z,53.63
2023-01-09T20:19:39.763Z,38.13
2023-01-09T20:22:07.153Z,23.83
2023-01-09T20:24:34.355Z,32.63
2023-01-09T20:27:01.559Z,53.07
2023-01-09T20:29:29.286Z,66.07
2023-01-09T20:31:56.538Z,51.80
2023-01-09T20:34:23.792Z,65.37
2023-01-09T20:36:51.058Z,59.87
2023-01-09T20:39:18.410Z,61.10
2023-01-09T20:41:45.626Z,61.57
2023-01-09T20:44:14.239Z,55.50
2023-01-09T20:46:42.678Z,43.30
2023-01-09T20:49:12.277Z,31.17
2023-01-09T20:51:43.789Z,20.33
2023-01-09T20:54:10.971Z,16.50
2023-01-09T20:56:38.116Z,16.07
2023-01-09T20:59:06.468Z,15.27
2023-01-09T21:01:34.881Z,15.07
2023-01-09T21:04:03.142Z,20.83
2023-01-09T21:06:30.476Z,25.50
2023-01-09T21:08:57.682Z,24.10
2023-01-09T21:11:24.890Z,25.07
2023-01-09T21:13:52.572Z,23.63
2023-01-09T21:16:22.174Z,22.80
2023-01-09T21:18:49.888Z,24.97
2023-01-09T21:21:18.729Z,27.77
2023-01-09T21:23:51.830Z,26.60
2023-01-09T21:26:22.353Z,25.07
2023-01-09T21:28:49.985Z,29.17
2023-01-09T21:31:18.514Z,29.20
2023-01-09T21:33:46.147Z,31.27
2023-01-09T21:36:13.590Z,31.00
2023-01-09T21:38:41.016Z,29.60
2023-01-09T21:41:26.814Z,29.87
2023-01-09T21:44:12.628Z,30.73
2023-01-09T21:46:52.307Z,41.50
2023-01-09T21:49:25.257Z,35.57
2023-01-09T21:51:53.424Z,35.17
2023-01-09T21:54:20.804Z,31.50
2023-01-09T21:56:47.973Z,25.97
2023-01-09T21:59:16.734Z,23.90
2023-01-09T22:01:44.439Z,21.37
2023-01-09T22:04:15.349Z,21.60
2023-01-09T22:06:42.691Z,20.87
2023-01-09T22:09:10.220Z,19.83
2023-01-09T22:11:38.521Z,19.93
2023-01-09T22:14:05.727Z,20.33
2023-01-09T22:16:33.401Z,20.13
2023-01-09T22:19:03.907Z,22.07
2023-01-09T22:21:31.308Z,20.90
2023-01-09T22:24:01.614Z,22.70
2023-01-09T22:26:29.628Z,23.33
2023-01-09T22:28:57.082Z,23.57
2023-01-09T22:31:32.831Z,25.33
2023-01-09T22:34:02.328Z,23.40
2023-01-09T22:36:31.159Z,25.10
2023-01-09T22:38:59.843Z,24.77
2023-01-09T22:41:29.523Z,25.70
2023-01-09T22:43:56.729Z,27.00
2023-01-09T22:46:23.929Z,26.67
2023-01-09T22:48:51.434Z,26.50
2023-01-09T22:51:20.011Z,25.83
2023-01-09T22:53:47.664Z,24.47
2023-01-09T22:56:19.381Z,22.47
2023-01-09T22:58:50.909Z,22.20
2023-01-09T23:01:18.813Z,22.10
2023-01-09T23:03:46.105Z,23.50
2023-01-09T23:06:15.333Z,24.57
2023-01-09T23:08:42.982Z,33.37
2023-01-09T23:11:12.797Z,37.67
2023-01-09T23:13:40.424Z,36.33
2023-01-09T23:16:07.665Z,28.47
2023-01-09T23:18:35.192Z,24.20
2023-01-09T23:21:03.901Z,23.03
2023-01-09T23:23:32.139Z,22.00
2023-01-09T23:26:01.420Z,21.17
2023-01-09T23:28:30.651Z,19.13
2023-01-09T23:30:57.889Z,19.37
2023-01-09T23:33:25.083Z,18.73
2023-01-09T23:35:52.412Z,18.27
2023-01-09T23:38:20.552Z,17.40
2023-01-09T23:40:47.812Z,17.03
2023-01-09T23:43:15.572Z,18.37
2023-01-09T23:45:44.088Z,20.97
2023-01-09T23:48:12.809Z,21.07
2023-01-09T23:50:43.094Z,20.60
2023-01-09T23:53:10.289Z,18.87
2023-01-09T23:55:37.657Z,19.73
2023-01-09T23:58:04.811Z,17.00
